Flight Track Log - Related Links

Times and Time Zones

All times are in EDT time to prevent confusion due to time zone crossing. See the CTL13 flight status page for this flight to view local times or setup timezone preferences in your user account.

Time Position Orientation Groundspeed Altitude Reporting Facility
EDT Latitude Longitude Course Direction KTS MPH feet Rate Location/Type
Wed 08:20:59 PM 39.8667 -86.2833 340° North 138 159 1,500  Level Indianapolis TRACON
Wed 08:22:05 PM 39.9072 -86.3031 340° North 165 190 2,100 567 Climbing Indianapolis Center
Wed 08:23:06 PM 39.9403 -86.3408 319° Northwest 161 185 2,700 537 Climbing Indianapolis Center
Wed 08:24:08 PM 39.9725 -86.3817 316° Northwest 161 185 3,200 532 Climbing Indianapolis Center
Wed 08:25:10 PM 40.0081 -86.4214 319° Northwest 164 189 3,800 581 Climbing Indianapolis Center
Wed 08:26:12 PM 40.0408 -86.4611 317° Northwest 165 190 4,400 634 Climbing Indianapolis Center
Wed 08:27:13 PM 40.0747 -86.5006 318° Northwest 164 189 5,100 585 Climbing Indianapolis Center
Wed 08:28:15 PM 40.1158 -86.5489 318° Northwest 165 190 5,600 435 Climbing Indianapolis Center
Wed 08:29:17 PM 40.1503 -86.5894 318° Northwest 166 191 6,000 194 Climbing Indianapolis Center
Wed 08:30:19 PM 40.1881 -86.6328 319° Northwest 172 198 6,000  Level Indianapolis Center
Wed 08:31:07 PM 40.2203 -86.6731 316° Northwest 184 212 6,000  Level Chicago Center
Wed 08:32:08 PM 40.2583 -86.7189 317° Northwest 182 209 6,000  Level Chicago Center
Wed 08:33:08 PM 40.2964 -86.7622 319° Northwest 183 211 6,000  Level Chicago Center
Wed 08:34:09 PM 40.3342 -86.8108 316° Northwest 184 212 6,000  Level Chicago Center
Wed 08:35:10 PM 40.3761 -86.8600 318° Northwest 187 215 6,000  Level Chicago Center
Wed 08:36:10 PM 40.4122 -86.9033 318° Northwest 187 215 6,000  Level Chicago Center
Wed 08:37:11 PM 40.4542 -86.9525 318° Northwest 188 216 6,000  Level Chicago Center
Wed 08:38:12 PM 40.4900 -86.9961 317° Northwest 185 213 6,000  Level Chicago Center
Wed 08:39:12 PM 40.5297 -87.0425 318° Northwest 186 214 6,000  Level Chicago Center
Wed 08:39:42 PM 40.5478 -87.0594 325° Northwest 186 214 6,000  Level Chicago Center
Wed 08:40:13 PM 40.5722 -87.0783 330° Northwest 187 215 6,000  Level Chicago Center
Wed 08:40:44 PM 40.5928 -87.0903 336° Northwest 187 215 6,000  Level Chicago Center
Wed 08:41:46 PM 40.6447 -87.1203 336° Northwest 190 219 6,000  Level Chicago Center
Wed 08:42:48 PM 40.6933 -87.1450 339° North 187 215 6,000  Level Chicago Center
Wed 08:43:50 PM 40.7428 -87.1694 339° North 190 219 6,000  Level Chicago Center
Wed 08:44:53 PM 40.8011 -87.1997 339° North 190 219 6,000  Level Chicago Center
Wed 08:45:55 PM 40.8511 -87.2233 340° North 192 221 6,000  Level Chicago Center
Wed 08:46:57 PM 40.8992 -87.2478 339° North 187 215 6,000  Level Chicago Center
Wed 08:47:59 PM 40.9481 -87.2744 338° Northwest 190 219 6,000  Level Chicago Center
Wed 08:49:01 PM 40.9964 -87.2992 339° North 189 217 6,000  Level Chicago Center
Wed 08:50:03 PM 41.0539 -87.3297 338° Northwest 187 215 6,000  Level Chicago Center
Wed 08:51:05 PM 41.1028 -87.3561 338° Northwest 188 216 6,000 -194 Level Chicago Center
Wed 08:52:07 PM 41.1519 -87.3822 338° Northwest 190 219 5,600 -484 Descending Chicago Center
Wed 08:53:09 PM 41.2044 -87.4092 339° North 198 228 5,000 -581 Descending Chicago Center
Wed 08:54:11 PM 41.2586 -87.4361 339° North 206 237 4,400 -484 Descending Chicago Center
Wed 08:55:13 PM 41.3225 -87.4708 338° Northwest 208 239 4,000 -194 Descending Chicago Center
Wed 08:56:15 PM 41.3708 -87.4981 337° Northwest 202 232 4,000  Level Chicago Center
Wed 08:57:18 PM 41.4175 -87.5242 337° Northwest 192 221 4,000 -288 Level Chicago Center
Wed 08:58:20 PM 41.4722 -87.5283 357° North 199 229 3,400 -484 Descending Chicago Center
Wed 08:59:22 PM 41.5228 -87.5061 18° North 200 230 3,000 -194 Descending Chicago Center
Wed 09:00:24 PM 41.5800 -87.5031 North 200 230 3,000  Level Chicago Center
Wed 09:01:26 PM 41.6264 -87.5283 338° Northwest 188 216 3,000  Level Chicago Center
Wed 09:02:28 PM 41.6597 -87.5753 314° West 181 208 3,000 -242 Level Chicago Center
Wed 09:03:30 PM 41.6939 -87.6233 314° West 179 206 2,500 -484 Descending Chicago Center
Wed 09:04:32 PM 41.7317 -87.6781 313° West 175 201 2,000 -581 Descending Chicago Center
Wed 09:05:34 PM 41.7617 -87.7239 311° West 170 196 1,300 -387 Descending Chicago Center
Wed 09:06:36 PM 41.7900 -87.7664 312° West 168 193 1,200 -97 Descending Chicago Center

Login

Don't have an account? Register now (free) for customized features, flight alerts, and more!